Time;durP1;ratioP1;P1;durP2;ratioP2;P2;SDS_P1;SDS_P2;PMS_P1;PMS_P2;Temp;Humidity;BMP_temperature;BMP_pressure;BME280_temperature;BME280_humidity;BME280_pressure;Samples;Min_cycle;Max_cycle;Signal;HPM_P1;HPM_P2
2022/08/08 00:01:43;;;;;;;2.38;1.35;;;;;;;22.24;nan;100448.03;4978993;28;20092;-72
2022/08/08 00:04:21;;;;;;;4.90;1.00;;;;;;;22.20;nan;100453.22;4987235;28;20089;-72
2022/08/08 00:07:14;;;;;;;2.58;1.00;;;;;;;22.12;nan;100466.50;4987209;28;20041;-72
2022/08/08 00:10:10;;;;;;;3.88;1.08;;;;;;;22.08;nan;100450.25;4985530;28;20030;-72
2022/08/08 00:13:08;;;;;;;2.47;1.00;;;;;;;22.00;nan;100459.75;4990737;28;20101;-72
2022/08/08 00:15:39;;;;;;;3.55;0.88;;;;;;;21.97;nan;100454.22;4950213;28;20068;-72
2022/08/08 00:18:27;;;;;;;1.80;1.10;;;;;;;21.98;nan;100469.19;4991301;28;20030;-72
2022/08/08 00:20:56;;;;;;;3.97;1.10;;;;;;;21.96;nan;100458.00;4992520;28;20049;-72
2022/08/08 00:23:33;;;;;;;5.47;1.10;;;;;;;21.86;nan;100458.97;4989204;28;20096;-72
2022/08/08 00:26:02;;;;;;;3.97;1.10;;;;;;;21.84;nan;100458.50;4990840;28;20042;-72
2022/08/08 00:28:40;;;;;;;2.50;1.23;;;;;;;21.81;nan;100448.38;4975003;28;20041;-72
2022/08/08 00:31:14;;;;;;;7.55;1.10;;;;;;;21.78;nan;100457.78;4990617;28;20487;-72
2022/08/08 00:33:47;;;;;;;3.28;1.30;;;;;;;21.69;nan;100488.28;4991559;28;20138;-71
2022/08/08 00:36:22;;;;;;;5.15;1.33;;;;;;;21.80;nan;100468.22;4988366;28;20038;-72
2022/08/08 00:38:57;;;;;;;2.38;1.20;;;;;;;21.75;nan;100462.97;4990497;28;20061;-72
2022/08/08 00:41:47;;;;;;;1.42;0.90;;;;;;;21.72;nan;100447.50;4989532;28;20078;-72
2022/08/08 00:44:41;;;;;;;2.25;1.10;;;;;;;21.67;nan;100459.09;4988756;28;20044;-72
2022/08/08 00:47:26;;;;;;;2.80;1.00;;;;;;;21.67;nan;100446.50;4991540;28;20129;-71
2022/08/08 00:50:24;;;;;;;1.30;1.20;;;;;;;21.43;nan;100425.25;4992010;28;20057;-72
2022/08/08 00:53:19;;;;;;;1.33;1.13;;;;;;;21.66;nan;100474.38;4966517;28;20054;-72
2022/08/08 00:56:06;;;;;;;2.83;1.13;;;;;;;21.68;nan;100466.03;4981725;28;20034;-72
2022/08/08 00:58:35;;;;;;;4.85;1.20;;;;;;;21.66;nan;100474.38;4989518;28;20377;-71
2022/08/08 01:01:17;;;;;;;8.10;1.27;;;;;;;21.64;nan;100457.00;4991828;28;20041;-72
2022/08/08 01:04:13;;;;;;;2.17;0.95;;;;;;;21.63;nan;100476.88;4984179;28;20044;-72
2022/08/08 01:07:06;;;;;;;3.90;1.30;;;;;;;21.60;nan;100470.22;4990146;28;20395;-72
2022/08/08 01:09:34;;;;;;;1.75;0.98;;;;;;;21.60;nan;100536.41;4988913;28;20484;-72
2022/08/08 01:12:34;;;;;;;4.72;1.30;;;;;;;21.55;nan;100472.19;4991412;28;20068;-72
2022/08/08 01:15:18;;;;;;;2.88;1.17;;;;;;;21.52;nan;100480.81;4989054;28;20038;-72
2022/08/08 01:18:08;;;;;;;2.47;1.08;;;;;;;21.46;nan;100469.41;4990652;28;20081;-71
2022/08/08 01:21:01;;;;;;;1.65;1.08;;;;;;;21.40;nan;100459.88;4988598;28;20038;-71
2022/08/08 01:23:48;;;;;;;3.53;1.27;;;;;;;21.37;nan;100469.25;4989017;28;20068;-71
2022/08/08 01:26:45;;;;;;;3.45;1.20;;;;;;;21.39;nan;100456.41;4990409;28;20049;-72
2022/08/08 01:29:10;;;;;;;2.35;1.05;;;;;;;21.40;nan;100436.53;4987938;28;20058;-70
2022/08/08 01:32:23;;;;;;;1.52;1.25;;;;;;;21.38;nan;100462.00;4988600;28;20401;-72
2022/08/08 01:35:13;;;;;;;1.42;0.90;;;;;;;21.35;nan;100458.03;4988522;28;20044;-71
2022/08/08 01:37:55;;;;;;;2.75;1.15;;;;;;;21.33;nan;100438.00;4991468;28;20384;-71
2022/08/08 01:40:31;;;;;;;1.83;1.30;;;;;;;21.32;nan;100455.16;4987353;28;20472;-71
2022/08/08 01:43:12;;;;;;;2.53;1.20;;;;;;;21.23;nan;100412.19;4987193;28;20141;-71
2022/08/08 01:45:53;;;;;;;2.38;1.02;;;;;;;21.10;nan;100474.56;4972009;28;20027;-71
2022/08/08 01:48:51;;;;;;;5.07;1.10;;;;;;;21.03;nan;100443.59;4989826;28;20132;-71
2022/08/08 01:51:22;;;;;;;4.82;1.27;;;;;;;21.10;nan;100447.78;4991865;28;20038;-71
2022/08/08 01:54:05;;;;;;;6.05;1.38;;;;;;;21.04;nan;100429.09;4988969;28;20058;-71
2022/08/08 01:56:42;;;;;;;2.10;1.30;;;;;;;21.01;nan;100455.69;4988024;28;20117;-72
2022/08/08 01:59:20;;;;;;;1.70;1.23;;;;;;;20.96;nan;100451.22;4989628;28;20050;-72
2022/08/08 02:01:48;;;;;;;6.63;1.40;;;;;;;20.98;nan;100445.56;4982436;28;20034;-71
2022/08/08 02:04:23;;;;;;;4.43;1.33;;;;;;;20.98;nan;100441.00;4986037;28;20046;-71
2022/08/08 02:06:51;;;;;;;8.15;1.30;;;;;;;20.99;nan;100447.16;4989357;28;20141;-71
2022/08/08 02:09:25;;;;;;;2.85;1.15;;;;;;;20.95;nan;100451.50;4990038;28;20116;-71
2022/08/08 02:11:51;;;;;;;4.93;1.40;;;;;;;20.91;nan;100453.19;4987305;28;20042;-71
2022/08/08 02:14:22;;;;;;;4.85;1.27;;;;;;;20.81;nan;100449.59;4989187;28;20399;-71
2022/08/08 02:16:53;;;;;;;2.22;1.10;;;;;;;20.70;nan;100381.25;4990366;28;20038;-71
2022/08/08 02:19:24;;;;;;;3.03;1.10;;;;;;;20.72;nan;100443.31;4988437;28;20505;-71
2022/08/08 02:24:49;;;;;;;3.20;1.30;;;;;;;;;;4986609;28;20073;-71
2022/08/08 02:27:25;;;;;;;5.65;1.25;;;;;;;20.75;nan;100449.94;4988842;28;20415;-71
2022/08/08 02:30:08;;;;;;;4.18;1.30;;;;;;;20.75;nan;100474.03;4989920;28;20034;-71
2022/08/08 02:32:36;;;;;;;3.05;1.20;;;;;;;20.71;nan;100471.16;4988067;28;20085;-71
2022/08/08 02:35:01;;;;;;;4.22;1.75;;;;;;;20.69;nan;100454.59;4988148;28;20335;-70
2022/08/08 02:37:58;;;;;;;2.03;1.40;;;;;;;20.64;nan;100477.94;4974257;28;20026;-71
2022/08/08 02:41:14;;;;;;;6.70;1.35;;;;;;;20.50;nan;100473.31;4988445;28;20145;-71
2022/08/08 02:43:58;;;;;;;1.60;1.40;;;;;;;20.43;nan;100458.69;4907998;29;20040;-71
2022/08/08 02:46:29;;;;;;;3.15;1.40;;;;;;;20.39;nan;100475.31;4913615;29;20067;-70
2022/08/08 02:49:10;;;;;;;2.65;1.30;;;;;;;20.40;nan;100478.81;4911099;29;20099;-71
2022/08/08 02:51:38;;;;;;;3.53;1.60;;;;;;;20.36;nan;100488.47;4912276;29;20044;-72
2022/08/08 02:54:09;;;;;;;4.80;1.48;;;;;;;20.38;nan;100487.09;4910984;29;20042;-71
2022/08/08 02:56:52;;;;;;;5.72;1.60;;;;;;;20.38;nan;100479.06;4912366;29;20073;-72
2022/08/08 02:59:47;;;;;;;11.15;1.77;;;;;;;20.39;nan;100447.78;4911376;29;20040;-71
2022/08/08 03:02:47;;;;;;;4.60;1.52;;;;;;;20.38;nan;100489.00;4898683;29;20509;-71
2022/08/08 03:05:37;;;;;;;4.72;1.95;;;;;;;20.33;nan;100487.19;4910077;29;20095;-71
2022/08/08 03:08:27;;;;;;;4.97;1.38;;;;;;;20.31;nan;100486.66;4904037;29;20115;-71
2022/08/08 03:11:23;;;;;;;4.60;1.60;;;;;;;20.29;nan;100498.72;4911679;29;20039;-72
2022/08/08 03:14:00;;;;;;;4.68;1.70;;;;;;;20.21;nan;100491.34;4895313;29;20568;-71
2022/08/08 03:16:34;;;;;;;4.22;1.25;;;;;;;20.21;nan;100481.44;4905754;29;20044;-71
2022/08/08 03:19:20;;;;;;;1.83;1.50;;;;;;;20.14;nan;100460.41;4941556;28;20121;-72
2022/08/08 03:22:22;;;;;;;6.95;1.45;;;;;;;20.16;nan;100497.53;4973570;28;20030;-71
2022/08/08 03:24:50;;;;;;;6.38;1.42;;;;;;;20.13;nan;100493.56;4986020;28;20570;-72
2022/08/08 03:27:23;;;;;;;6.70;1.55;;;;;;;20.12;nan;100481.28;4988500;28;20046;-72
2022/08/08 03:29:52;;;;;;;7.03;1.30;;;;;;;;;;4988416;28;20034;-71
2022/08/08 03:35:04;;;;;;;9.18;1.60;;;;;;;20.02;nan;100494.78;4988343;28;20504;-71
2022/08/08 03:37:30;;;;;;;7.65;1.67;;;;;;;;;;4990003;28;20088;-72
2022/08/08 03:39:59;;;;;;;4.45;1.80;;;;;;;19.97;nan;100537.63;4989304;28;20576;-72
2022/08/08 03:42:24;;;;;;;3.17;1.88;;;;;;;;;;4969809;28;20033;-72
2022/08/08 03:44:50;;;;;;;4.43;1.85;;;;;;;19.93;nan;100488.47;4989970;28;20046;-71
2022/08/08 03:47:20;;;;;;;9.02;1.90;;;;;;;19.85;nan;100494.44;4989322;28;20936;-72
2022/08/08 03:49:47;;;;;;;12.60;1.75;;;;;;;19.91;nan;100515.47;4973621;28;20046;-72
2022/08/08 03:52:13;;;;;;;5.82;1.83;;;;;;;19.85;nan;100505.13;4987622;28;20108;-71
2022/08/08 03:54:42;;;;;;;6.28;1.77;;;;;;;19.77;nan;100488.63;4989868;28;20048;-70
2022/08/08 03:57:15;;;;;;;6.15;1.67;;;;;;;19.79;nan;100515.06;4993083;28;20041;-70
2022/08/08 03:59:40;;;;;;;3.83;1.70;;;;;;;19.75;nan;100519.38;4991393;28;20034;-70
2022/08/08 04:02:17;;;;;;;4.80;1.85;;;;;;;19.82;nan;100521.72;4974142;28;20023;-72
2022/08/08 04:04:43;;;;;;;7.18;1.80;;;;;;;19.86;nan;100523.56;4986192;28;20832;-71
2022/08/08 04:07:09;;;;;;;5.53;1.80;;;;;;;19.88;nan;100531.28;4986890;28;20049;-72
2022/08/08 04:09:35;;;;;;;4.30;2.13;;;;;;;19.85;nan;100542.53;4972100;28;20041;-67
2022/08/08 04:12:00;;;;;;;10.98;2.90;;;;;;;19.88;nan;100528.63;4989646;28;20130;-67
2022/08/08 04:14:26;;;;;;;4.38;1.70;;;;;;;19.89;nan;100543.56;4992238;28;20042;-67
2022/08/08 04:16:52;;;;;;;6.00;1.90;;;;;;;19.78;nan;100540.22;4991210;28;20030;-67
2022/08/08 04:19:17;;;;;;;7.47;2.65;;;;;;;19.92;nan;100548.34;4990039;28;20072;-68
2022/08/08 04:21:42;;;;;;;5.25;2.15;;;;;;;19.85;nan;100556.72;4988040;28;20026;-68
2022/08/08 04:24:08;;;;;;;7.70;2.20;;;;;;;19.96;nan;100549.38;4990057;28;20035;-69
2022/08/08 04:26:33;;;;;;;4.80;1.92;;;;;;;19.86;nan;100534.25;4989540;28;20042;-68
2022/08/08 04:28:59;;;;;;;5.88;1.98;;;;;;;19.98;nan;100557.91;4991935;28;20476;-67
2022/08/08 04:31:24;;;;;;;7.05;2.30;;;;;;;19.98;nan;100568.59;4960126;28;20144;-67
2022/08/08 04:33:50;;;;;;;9.50;2.25;;;;;;;19.91;nan;100544.88;4987984;28;20061;-67
2022/08/08 04:36:15;;;;;;;7.43;2.13;;;;;;;19.89;nan;100559.59;4990184;28;20026;-67
2022/08/08 04:38:41;;;;;;;5.60;1.90;;;;;;;19.90;nan;100550.53;4985706;28;20072;-67
2022/08/08 04:41:06;;;;;;;6.93;1.95;;;;;;;19.90;nan;100564.66;4990857;28;20062;-67
2022/08/08 04:43:32;;;;;;;8.20;2.30;;;;;;;19.91;nan;100563.59;4988444;28;20034;-67
2022/08/08 04:45:57;;;;;;;10.48;2.70;;;;;;;19.79;nan;100524.97;4988875;28;20357;-67
2022/08/08 04:48:23;;;;;;;10.75;2.67;;;;;;;19.94;nan;100554.19;4992493;28;20471;-68
2022/08/08 04:50:48;;;;;;;29.52;4.53;;;;;;;19.95;nan;100564.63;4989472;28;20421;-67
2022/08/08 04:53:13;;;;;;;10.63;2.53;;;;;;;;;;4988199;28;20429;-68
2022/08/08 04:55:39;;;;;;;9.20;1.98;;;;;;;19.98;nan;100542.66;4988977;28;20034;-68
2022/08/08 04:58:05;;;;;;;7.32;2.10;;;;;;;20.00;nan;100606.53;4983246;28;20039;-67
2022/08/08 05:00:30;;;;;;;13.85;2.22;;;;;;;20.05;nan;100563.72;4984981;28;20031;-67
2022/08/08 05:02:56;;;;;;;11.25;2.30;;;;;;;20.11;nan;100573.28;4990056;28;20072;-67
2022/08/08 05:05:21;;;;;;;13.52;2.20;;;;;;;20.12;nan;100568.72;4980938;28;20089;-66
2022/08/08 05:07:46;;;;;;;6.57;2.13;;;;;;;20.17;nan;100537.38;4990191;28;20041;-66
2022/08/08 05:10:12;;;;;;;9.52;2.20;;;;;;;20.21;nan;100574.22;4991526;28;20030;-67
2022/08/08 05:12:38;;;;;;;6.32;1.90;;;;;;;20.26;nan;100591.03;4992902;28;20069;-68
2022/08/08 05:15:04;;;;;;;11.98;2.28;;;;;;;20.36;nan;100590.09;4983778;28;20125;-67
2022/08/08 05:17:29;;;;;;;12.57;2.25;;;;;;;20.48;nan;100587.03;4981858;28;20121;-65
2022/08/08 05:19:55;;;;;;;14.65;2.60;;;;;;;20.58;nan;100570.88;4991170;28;20042;-69
2022/08/08 05:22:20;;;;;;;12.93;3.40;;;;;;;20.59;nan;100605.38;4990933;28;20026;-68
2022/08/08 05:24:46;;;;;;;10.23;2.25;;;;;;;20.75;nan;100544.41;4988940;28;20026;-70
2022/08/08 05:27:11;;;;;;;8.90;2.35;;;;;;;20.88;nan;100580.38;4991077;28;20060;-68
2022/08/08 05:29:37;;;;;;;14.00;2.80;;;;;;;20.99;nan;100576.44;4980151;28;20038;-70
2022/08/08 05:32:07;;;;;;;11.25;2.40;;;;;;;21.13;nan;100581.09;4984827;28;20038;-71
2022/08/08 05:34:40;;;;;;;18.15;2.60;;;;;;;21.20;nan;100595.69;4989451;28;20065;-76
2022/08/08 05:37:07;;;;;;;9.80;2.78;;;;;;;21.31;nan;100593.66;4991775;28;20031;-76
2022/08/08 05:39:33;;;;;;;14.75;2.60;;;;;;;21.47;nan;100612.19;4991114;28;20034;-75
2022/08/08 05:42:01;;;;;;;8.70;2.50;;;;;;;21.59;nan;100572.34;4991198;28;20026;-73
2022/08/08 05:44:29;;;;;;;8.75;2.70;;;;;;;21.72;nan;100611.78;4976311;28;20492;-75
2022/08/08 05:46:57;;;;;;;12.45;2.83;;;;;;;21.83;nan;100599.78;4990648;28;20049;-75
2022/08/08 05:49:22;;;;;;;14.18;2.78;;;;;;;21.87;nan;100597.31;4987370;28;20039;-76
2022/08/08 05:51:48;;;;;;;19.50;2.80;;;;;;;21.92;nan;100586.50;4971112;28;20467;-73
2022/08/08 05:54:15;;;;;;;7.30;2.75;;;;;;;22.16;nan;100602.41;4987960;28;20031;-74
2022/08/08 05:56:43;;;;;;;8.43;2.70;;;;;;;22.24;nan;100654.59;4990462;28;20078;-75
2022/08/08 05:59:14;;;;;;;5.97;2.85;;;;;;;22.32;nan;100639.72;4989668;28;20030;-74
2022/08/08 06:01:44;;;;;;;8.57;3.47;;;;;;;22.46;nan;100600.25;4992760;28;20041;-74
2022/08/08 06:04:10;;;;;;;13.95;2.92;;;;;;;22.48;nan;100616.81;4988567;28;20038;-75
2022/08/08 06:06:41;;;;;;;9.75;3.60;;;;;;;22.59;nan;100612.06;4989718;28;20026;-74
2022/08/08 06:09:08;;;;;;;11.98;3.30;;;;;;;22.55;nan;100587.69;4988788;28;20069;-74
2022/08/08 06:11:35;;;;;;;6.13;3.40;;;;;;;22.73;nan;100620.88;4986721;28;20038;-75
2022/08/08 06:14:04;;;;;;;7.22;3.50;;;;;;;22.85;nan;100668.69;4980096;28;20073;-74
2022/08/08 06:16:37;;;;;;;7.13;3.10;;;;;;;22.82;nan;100591.41;4988756;28;20108;-75
2022/08/08 06:19:03;;;;;;;7.78;3.33;;;;;;;23.04;nan;100645.22;4975124;28;20069;-74
2022/08/08 06:21:29;;;;;;;7.72;3.30;;;;;;;23.12;nan;100616.84;4979178;28;20073;-73
2022/08/08 06:23:54;;;;;;;6.75;3.03;;;;;;;23.31;nan;100628.19;4985498;28;20113;-74
2022/08/08 06:26:23;;;;;;;8.15;3.05;;;;;;;23.42;nan;100668.28;4976120;28;20471;-71
2022/08/08 06:28:55;;;;;;;;;;;;;;;23.55;nan;100627.09;4989488;28;20112;-71
2022/08/08 06:31:22;;;;;;;13.25;3.45;;;;;;;23.66;nan;100620.38;4988366;28;19996;-70
2022/08/08 06:34:00;;;;;;;20.50;3.90;;;;;;;23.73;nan;100625.34;4990283;28;20038;-71
2022/08/08 06:36:40;;;;;;;11.45;4.35;;;;;;;23.80;nan;100614.16;4986818;28;20034;-75
2022/08/08 06:39:10;;;;;;;6.82;3.53;;;;;;;23.89;nan;100648.06;4989054;28;20400;-75
2022/08/08 06:41:55;;;;;;;5.90;3.17;;;;;;;23.95;nan;100621.84;4975319;28;20034;-70
2022/08/08 06:44:24;;;;;;;15.63;3.80;;;;;;;23.98;nan;100670.41;4990374;28;20096;-74
2022/08/08 06:46:51;;;;;;;10.27;3.70;;;;;;;24.12;nan;100648.03;4988124;28;20046;-75
2022/08/08 06:49:17;;;;;;;7.10;3.85;;;;;;;24.25;nan;100652.50;4975248;28;20122;-73
2022/08/08 06:51:43;;;;;;;11.13;4.03;;;;;;;24.31;nan;100635.13;4972286;28;20038;-75
2022/08/08 06:54:09;;;;;;;8.60;3.70;;;;;;;24.45;nan;100658.44;4990685;28;20080;-73
2022/08/08 06:56:35;;;;;;;7.03;3.92;;;;;;;24.53;nan;100638.84;4984432;28;20030;-74
2022/08/08 06:59:02;;;;;;;11.63;4.13;;;;;;;24.62;nan;100663.91;4973269;28;20444;-76
2022/08/08 07:01:36;;;;;;;8.05;4.10;;;;;;;24.65;nan;100604.03;4992808;28;20117;-73
2022/08/08 07:04:09;;;;;;;7.75;3.88;;;;;;;24.76;nan;100648.41;4988745;28;20048;-71
2022/08/08 07:06:38;;;;;;;10.25;3.67;;;;;;;24.83;nan;100639.88;4965871;28;20063;-73
2022/08/08 07:09:17;;;;;;;6.10;3.90;;;;;;;24.92;nan;100651.44;4985435;28;20034;-72
2022/08/08 07:11:47;;;;;;;9.70;4.22;;;;;;;24.97;nan;100628.94;4987778;28;20035;-72
2022/08/08 07:14:16;;;;;;;9.88;3.63;;;;;;;25.19;nan;100655.00;4987443;28;20038;-73
2022/08/08 07:17:14;;;;;;;12.65;4.07;;;;;;;25.27;nan;100642.63;4982401;28;20030;-73
2022/08/08 07:19:51;;;;;;;13.85;4.38;;;;;;;25.36;nan;100638.00;4982583;28;20068;-74
2022/08/08 07:22:30;;;;;;;12.85;4.30;;;;;;;25.42;nan;100642.91;4989147;28;20053;-74
2022/08/08 07:25:02;;;;;;;6.28;4.05;;;;;;;25.55;nan;100654.63;4984845;28;20556;-74
2022/08/08 07:27:36;;;;;;;8.48;4.00;;;;;;;25.54;nan;100653.03;4985880;28;20399;-75
2022/08/08 07:30:04;;;;;;;10.70;4.75;;;;;;;25.73;nan;100612.22;4988777;28;20042;-73
2022/08/08 07:32:30;;;;;;;14.50;4.57;;;;;;;25.80;nan;100665.69;4986855;28;20066;-74
2022/08/08 07:34:58;;;;;;;13.30;4.50;;;;;;;25.81;nan;100692.38;4994358;28;20030;-74
2022/08/08 07:37:25;;;;;;;9.67;4.33;;;;;;;25.94;nan;100671.72;4996376;28;20030;-74
2022/08/08 07:39:51;;;;;;;11.65;4.10;;;;;;;26.05;nan;100650.56;4977804;28;20311;-74
2022/08/08 07:42:19;;;;;;;13.25;4.22;;;;;;;26.12;nan;100640.06;4991370;28;20029;-74
2022/08/08 07:44:46;;;;;;;13.63;4.20;;;;;;;26.33;nan;100655.53;4990996;28;20109;-73
2022/08/08 07:47:11;;;;;;;8.57;4.18;;;;;;;26.45;nan;100669.94;4992509;28;20037;-74
2022/08/08 07:49:38;;;;;;;8.63;4.25;;;;;;;26.47;nan;100667.69;4993110;28;20026;-74
2022/08/08 07:52:06;;;;;;;18.65;6.40;;;;;;;26.58;nan;100668.16;4988779;28;20031;-74
2022/08/08 07:54:55;;;;;;;11.40;4.85;;;;;;;26.68;nan;100661.59;4992229;28;20049;-75
2022/08/08 07:57:21;;;;;;;11.18;5.43;;;;;;;26.76;nan;100668.03;4991101;28;20032;-73
2022/08/08 07:59:56;;;;;;;12.88;4.90;;;;;;;26.88;nan;100712.16;4989181;28;20445;-75
2022/08/08 08:02:26;;;;;;;12.32;4.72;;;;;;;26.90;nan;100650.47;4988918;28;20034;-74
2022/08/08 08:04:56;;;;;;;9.90;5.30;;;;;;;26.97;nan;100668.06;4989606;28;20113;-75
2022/08/08 08:07:24;;;;;;;11.07;5.70;;;;;;;27.04;nan;100646.72;4986601;28;20066;-75
2022/08/08 08:09:50;;;;;;;9.43;5.53;;;;;;;27.07;nan;100663.06;4989562;28;20040;-75
2022/08/08 08:12:19;;;;;;;8.20;5.43;;;;;;;27.15;nan;100677.63;4992982;28;20034;-76
2022/08/08 08:15:02;;;;;;;8.60;5.40;;;;;;;27.23;nan;100654.38;4990305;28;20114;-69
2022/08/08 08:17:28;;;;;;;8.50;5.80;;;;;;;27.32;nan;100652.38;4989554;28;20480;-70
2022/08/08 08:20:01;;;;;;;7.13;5.35;;;;;;;27.45;nan;100681.06;4973065;28;20088;-71
2022/08/08 08:22:27;;;;;;;8.35;5.72;;;;;;;27.49;nan;100700.13;4987494;28;20026;-74
2022/08/08 08:24:52;;;;;;;6.68;5.20;;;;;;;27.56;nan;100670.63;4973710;28;20093;-69
2022/08/08 08:27:18;;;;;;;9.35;6.00;;;;;;;27.57;nan;100659.47;4990244;28;20042;-71
2022/08/08 08:29:44;;;;;;;10.60;5.82;;;;;;;27.58;nan;100655.66;4978127;28;20069;-74
2022/08/08 08:32:10;;;;;;;9.50;6.20;;;;;;;27.61;nan;100686.66;4968109;28;20055;-75
2022/08/08 08:34:38;;;;;;;9.90;6.00;;;;;;;27.62;nan;100623.28;4965544;28;20120;-73
2022/08/08 08:37:03;;;;;;;8.23;6.05;;;;;;;27.69;nan;100672.25;4986846;28;20042;-75
2022/08/08 08:39:29;;;;;;;11.05;5.90;;;;;;;27.68;nan;100650.91;4988423;28;20022;-76
2022/08/08 08:41:56;;;;;;;8.70;5.53;;;;;;;27.75;nan;100673.63;4972917;28;20035;-75
2022/08/08 08:44:24;;;;;;;9.35;5.95;;;;;;;27.81;nan;100668.00;4987710;28;20126;-75
2022/08/08 08:46:51;;;;;;;8.68;5.72;;;;;;;27.84;nan;100676.25;4993805;28;20034;-75
2022/08/08 08:49:16;;;;;;;9.60;6.03;;;;;;;27.92;nan;100678.09;4976116;28;20404;-75
2022/08/08 08:51:43;;;;;;;10.57;6.13;;;;;;;27.95;nan;100673.91;4990210;28;20042;-74
2022/08/08 08:54:11;;;;;;;8.25;5.60;;;;;;;27.99;nan;100669.38;4987147;28;20049;-75
2022/08/08 08:56:38;;;;;;;6.75;5.78;;;;;;;28.05;nan;100684.31;4986831;28;20054;-75
2022/08/08 08:59:04;;;;;;;8.75;5.80;;;;;;;28.12;nan;100645.84;4987690;28;20038;-74
2022/08/08 09:01:36;;;;;;;13.63;5.82;;;;;;;28.28;nan;100671.13;4990153;28;20030;-74
2022/08/08 09:04:08;;;;;;;9.23;5.63;;;;;;;28.39;nan;100644.38;4987986;28;20039;-76
2022/08/08 09:06:41;;;;;;;7.82;5.70;;;;;;;28.49;nan;100633.09;4975226;28;20038;-75
2022/08/08 09:09:21;;;;;;;10.35;5.85;;;;;;;28.65;nan;100635.91;4973663;28;20498;-74
2022/08/08 09:11:47;;;;;;;7.68;5.57;;;;;;;28.82;nan;100667.38;4988628;28;20026;-75
2022/08/08 09:14:15;;;;;;;7.53;5.95;;;;;;;28.92;nan;100661.47;4990194;28;20031;-75
2022/08/08 09:16:41;;;;;;;10.95;6.28;;;;;;;28.97;nan;100655.84;4990560;28;20064;-74
2022/08/08 09:19:08;;;;;;;7.40;6.00;;;;;;;29.04;nan;100685.88;4983367;28;20034;-74
2022/08/08 09:21:34;;;;;;;10.13;6.10;;;;;;;29.05;nan;100702.94;4984694;28;20023;-74
2022/08/08 09:24:01;;;;;;;10.15;6.13;;;;;;;29.21;nan;100684.84;4989657;28;20033;-75
2022/08/08 09:26:44;;;;;;;9.38;5.90;;;;;;;29.27;nan;100683.44;4987772;28;20041;-74
2022/08/08 09:29:21;;;;;;;7.82;6.18;;;;;;;29.27;nan;100664.44;4989783;28;20038;-74
2022/08/08 09:31:47;;;;;;;10.63;5.75;;;;;;;29.33;nan;100692.16;4987284;28;20045;-74
2022/08/08 09:34:16;;;;;;;12.25;6.22;;;;;;;29.34;nan;100680.16;4989228;28;20026;-74
2022/08/08 09:36:45;;;;;;;11.35;5.70;;;;;;;29.34;nan;100680.16;4983419;28;20042;-75
2022/08/08 09:39:11;;;;;;;6.55;5.93;;;;;;;29.36;nan;100680.59;4984637;28;20061;-75
2022/08/08 09:41:39;;;;;;;14.30;6.50;;;;;;;29.35;nan;100692.56;4971901;28;20496;-73
2022/08/08 09:44:33;;;;;;;16.27;6.38;;;;;;;29.31;nan;100659.13;4984532;28;20034;-75
2022/08/08 09:47:04;;;;;;;8.65;6.20;;;;;;;29.34;nan;100677.44;4987528;28;20041;-75
2022/08/08 09:49:33;;;;;;;10.98;6.50;;;;;;;29.35;nan;100679.00;4968182;28;20133;-73
2022/08/08 09:52:00;;;;;;;8.48;6.18;;;;;;;29.46;nan;100641.31;4970166;28;20034;-73
2022/08/08 09:54:34;;;;;;;11.32;6.32;;;;;;;29.48;nan;100661.53;4985124;28;20035;-73
2022/08/08 09:57:02;;;;;;;6.38;5.57;;;;;;;29.52;nan;100682.53;4983136;28;20088;-74
2022/08/08 09:59:30;;;;;;;9.40;6.20;;;;;;;29.48;nan;100677.03;4989236;28;20400;-73
2022/08/08 10:01:59;;;;;;;12.75;6.93;;;;;;;29.47;nan;100659.97;4989711;28;20018;-74
2022/08/08 10:04:26;;;;;;;7.15;5.88;;;;;;;29.53;nan;100670.56;4968681;28;20500;-74
2022/08/08 10:06:52;;;;;;;7.35;5.68;;;;;;;29.57;nan;100680.38;4990644;28;20069;-74
2022/08/08 10:09:32;;;;;;;9.13;6.28;;;;;;;29.57;nan;100712.16;4984427;28;20034;-75
2022/08/08 10:12:02;;;;;;;11.02;6.70;;;;;;;29.66;nan;100644.94;4981892;28;20038;-74
2022/08/08 10:14:33;;;;;;;9.00;6.85;;;;;;;29.68;nan;100645.41;4967892;28;20130;-75
2022/08/08 10:17:02;;;;;;;11.75;6.40;;;;;;;29.75;nan;100644.81;4985581;28;20366;-75
2022/08/08 10:19:34;;;;;;;;;;;;;;;29.78;nan;100660.38;4981633;28;20118;-75
2022/08/08 10:22:02;;;;;;;11.20;6.40;;;;;;;29.70;nan;100637.72;4987346;28;19961;-75
2022/08/08 10:24:28;;;;;;;7.95;6.20;;;;;;;29.79;nan;100654.63;4986865;28;20031;-73
2022/08/08 10:27:03;;;;;;;13.45;6.40;;;;;;;29.85;nan;100649.72;4968171;28;20357;-74
2022/08/08 10:29:43;;;;;;;11.55;6.88;;;;;;;29.86;nan;100641.22;4985528;28;20102;-75
2022/08/08 10:35:00;;;;;;;9.02;6.10;;;;;;;29.90;nan;100625.00;4985024;28;20042;-74
2022/08/08 10:37:30;;;;;;;8.27;7.07;;;;;;;30.01;nan;100636.16;4987356;28;20104;-74
2022/08/08 10:39:58;;;;;;;7.28;6.40;;;;;;;30.09;nan;100640.59;4970037;28;20061;-75
2022/08/08 10:42:35;;;;;;;9.68;6.00;;;;;;;30.11;nan;100632.88;4983280;28;20506;-74
2022/08/08 10:45:04;;;;;;;7.50;6.00;;;;;;;30.26;nan;100648.41;4987977;28;20455;-73
2022/08/08 10:47:29;;;;;;;7.32;5.90;;;;;;;30.32;nan;100646.22;4989993;28;20031;-76
2022/08/08 10:49:58;;;;;;;7.63;6.80;;;;;;;30.50;nan;100654.78;4988207;28;20026;-75
2022/08/08 10:52:40;;;;;;;7.47;6.05;;;;;;;30.56;nan;100641.72;4989078;28;20034;-71
2022/08/08 10:55:12;;;;;;;11.20;7.50;;;;;;;30.55;nan;100643.63;4981910;28;20082;-74
2022/08/08 10:57:42;;;;;;;9.20;6.82;;;;;;;30.55;nan;100640.13;4986207;28;20038;-75
2022/08/08 11:00:11;;;;;;;7.93;6.47;;;;;;;30.53;nan;100629.63;4989398;28;20037;-75
2022/08/08 11:02:36;;;;;;;;;;;;;;;30.49;nan;100610.50;4968696;28;20376;-73
2022/08/08 11:05:11;;;;;;;9.88;6.53;;;;;;;30.48;nan;100633.41;4968308;28;19920;-75
2022/08/08 11:07:39;;;;;;;12.77;6.25;;;;;;;30.48;nan;100640.75;4986336;28;20081;-74
2022/08/08 11:10:10;;;;;;;10.63;7.03;;;;;;;30.42;nan;100585.88;4982130;28;20031;-74
2022/08/08 11:12:47;;;;;;;9.77;6.25;;;;;;;30.45;nan;100612.34;4989863;28;20042;-74
2022/08/08 11:15:15;;;;;;;9.38;6.20;;;;;;;30.48;nan;100594.53;4986506;28;20035;-74
2022/08/08 11:17:42;;;;;;;8.18;6.63;;;;;;;30.47;nan;100620.94;4986861;28;20037;-73
2022/08/08 11:20:09;;;;;;;17.60;7.28;;;;;;;30.46;nan;100613.16;4971446;28;20039;-74
2022/08/08 11:22:37;;;;;;;29.45;7.53;;;;;;;30.46;nan;100603.06;4987554;28;20018;-74
2022/08/08 11:25:06;;;;;;;8.27;6.40;;;;;;;30.39;nan;100607.56;4981861;28;20069;-74
2022/08/08 11:27:34;;;;;;;18.42;6.60;;;;;;;30.38;nan;100616.84;4982819;28;20049;-74
2022/08/08 11:30:03;;;;;;;9.40;6.15;;;;;;;30.38;nan;100581.53;4981685;28;20042;-75
2022/08/08 11:32:30;;;;;;;10.02;6.13;;;;;;;30.41;nan;100586.25;4985279;28;20026;-74
2022/08/08 11:35:22;;;;;;;9.50;6.15;;;;;;;30.26;nan;100582.44;4987140;28;20065;-72
2022/08/08 11:37:48;;;;;;;10.35;5.63;;;;;;;30.18;nan;100603.19;4978318;28;20053;-75
2022/08/08 11:40:14;;;;;;;8.93;5.88;;;;;;;30.22;nan;100606.78;4985335;28;20030;-74
2022/08/08 11:42:41;;;;;;;9.23;6.20;;;;;;;30.12;nan;100629.03;4970664;28;20109;-73
2022/08/08 11:45:09;;;;;;;12.05;6.05;;;;;;;30.15;nan;100600.41;4987974;28;20026;-73
2022/08/08 11:47:36;;;;;;;13.82;5.45;;;;;;;30.19;nan;100583.00;4985479;28;20073;-74
2022/08/08 11:50:08;;;;;;;20.60;6.70;;;;;;;30.26;nan;100579.72;4967486;28;20061;-68
2022/08/08 11:52:35;;;;;;;10.25;6.22;;;;;;;30.28;nan;100566.56;4985554;28;20037;-75
2022/08/08 11:55:01;;;;;;;9.75;5.85;;;;;;;30.14;nan;100482.78;4985591;28;20023;-69
2022/08/08 11:57:28;;;;;;;6.03;5.40;;;;;;;30.24;nan;100560.22;4986247;28;20388;-69
2022/08/08 11:59:59;;;;;;;10.32;6.13;;;;;;;30.29;nan;100573.59;4989125;28;20053;-70
2022/08/08 12:02:27;;;;;;;11.40;5.93;;;;;;;30.32;nan;100556.56;4984977;28;20432;-74
2022/08/08 12:05:10;;;;;;;12.50;6.30;;;;;;;30.31;nan;100561.22;4991547;28;20034;-74
2022/08/08 12:07:47;;;;;;;7.88;6.10;;;;;;;30.37;nan;100571.81;4970987;28;20117;-73
2022/08/08 12:10:15;;;;;;;10.07;6.10;;;;;;;30.27;nan;100549.47;4989258;28;20034;-74
2022/08/08 12:12:42;;;;;;;13.45;6.20;;;;;;;30.31;nan;100544.91;4990869;28;20065;-75
2022/08/08 12:15:08;;;;;;;12.07;6.47;;;;;;;30.32;nan;100545.69;4986590;28;20039;-76